Boston, Massachusetts
Traffic Map
Current Weather Conditions
Boston, Massachusetts
Clear
Clear
-4°
Feels Like: -9°
Wind Chill: -9° Ceiling: Unl
Heat Index: -4° Visibility: 10mi
Dew Point: -9° Wind: 8mph
Humidity: 66% Direction: 280° (W)
Pressure: 30.33in Gusts: 0mph
Raw Report DataKBOS 060954Z 28007KT 10SM CLR M04/M09 A3033 RMK AO2 SLP270 T10391094
Traffic Incident Summary
Active as of:
Severity:
Category:
InformationThere was an issue retrieving the traffic information for this location. Please try a different location or try again shortly.
Advertisements
Track Severe Weather on mobile